Baise, China
Current Conditions -  °F | °C
As of 3:00 PM on Tuesday 21 Oct 2014 (Local Time) from ZGNN Reporting Station
Few Clouds Few Clouds  
Wind Chill: 88°   Ceiling: Unl
Heat Index: 94°   Visibility: 6mi
Dew Point: 72°   Wind: 2mph
Humidity: 58%   Direction: NA
Pressure: 29.94"   Gusts: NA
Location:  23.9°N, 106.6°E
Report Text: ZGNN 210700Z VRB01MPS 9999 FEW033 31/22 Q1014 NOSIG
Loading
Personal Weather Stations






























Interactive Weather Map
Tropical Storm Tracking
New forecast layout! Learn more

10-Day Weather Forecast

Advertisements
Track Severe Weather on mobile